Airport View

Enter AWOS ICAO identifier for current METAR.

ex. KFNL

KMTJ 112153Z AUTO 00000KT 10SM FEW120 01/M06 A3022 RMK AO2 SLP249 T00061061

11 Dec 2019 22:42

Frequency: 135.225

Phone: 970-249-1534

Other Area AWOS: KAJZ - KTEX - KAIB - KGUC

TAF KMTJ 111739Z 1118/1218 00000KT P6SM SCT120 FM112000 34004KT P6SM SCT100 OVC200 FM120200 14005KT P6SM FEW080 SCT200